Time;durP1;ratioP1;P1;durP2;ratioP2;P2;SDS_P1;SDS_P2;PMS_P1;PMS_P2;Temp;Humidity;BMP_temperature;BMP_pressure;BME280_temperature;BME280_humidity;BME280_pressure;Samples;Min_cycle;Max_cycle;Signal;HPM_P1;HPM_P2
2022/11/30 00:00:01;;;;;;;5.13;3.55;;;11.30;99.90;;;;;;5110673;28;20020;-47
2022/11/30 00:02:29;;;;;;;3.08;2.63;;;11.10;99.90;;;;;;5111080;28;20440;-48
2022/11/30 00:04:54;;;;;;;3.33;2.80;;;11.60;99.90;;;;;;5110947;28;20031;-48
2022/11/30 00:07:20;;;;;;;4.10;3.13;;;13.20;99.90;;;;;;5110949;28;20034;-48
2022/11/30 00:09:45;;;;;;;4.10;2.92;;;14.10;99.90;;;;;;5110749;28;20024;-47
2022/11/30 00:12:11;;;;;;;4.60;3.20;;;14.00;99.90;;;;;;5110962;28;20020;-47
2022/11/30 00:14:37;;;;;;;3.28;2.88;;;13.60;99.90;;;;;;5110950;28;20028;-48
2022/11/30 00:17:02;;;;;;;3.72;2.80;;;13.10;99.90;;;;;;5110875;28;20024;-47
2022/11/30 00:19:28;;;;;;;4.22;3.15;;;12.70;99.90;;;;;;5110433;28;20469;-47
2022/11/30 00:21:53;;;;;;;3.50;3.00;;;12.20;99.90;;;;;;5110959;28;20032;-47
2022/11/30 00:24:19;;;;;;;4.93;3.47;;;11.80;99.90;;;;;;5110881;28;20035;-50
2022/11/30 00:26:44;;;;;;;4.43;2.97;;;11.50;99.90;;;;;;5114056;28;20102;-47
2022/11/30 00:29:10;;;;;;;3.60;3.22;;;11.30;99.90;;;;;;5114171;28;20019;-47
2022/11/30 00:31:36;;;;;;;4.50;3.47;;;11.10;99.90;;;;;;5114561;27;20020;-47
2022/11/30 00:34:01;;;;;;;2.85;2.55;;;11.20;99.90;;;;;;5114565;28;20074;-49
2022/11/30 00:36:27;;;;;;;4.47;3.20;;;12.50;99.90;;;;;;5114610;28;20019;-47
2022/11/30 00:38:53;;;;;;;5.10;3.20;;;13.90;99.90;;;;;;5112550;28;20501;-47
2022/11/30 00:41:19;;;;;;;3.90;3.10;;;14.20;99.90;;;;;;5114443;27;20438;-47
2022/11/30 00:43:45;;;;;;;4.63;3.17;;;13.90;99.90;;;;;;5114444;28;20035;-48
2022/11/30 00:46:11;;;;;;;3.95;2.97;;;13.40;99.90;;;;;;5114262;28;20465;-47
2022/11/30 00:48:37;;;;;;;4.00;3.30;;;12.90;99.90;;;;;;5113622;28;20443;-47
2022/11/30 00:51:04;;;;;;;4.50;3.45;;;12.40;99.90;;;;;;5114178;28;20024;-47
2022/11/30 00:53:30;;;;;;;3.60;3.10;;;12.00;99.90;;;;;;5114185;28;20088;-45
2022/11/30 00:55:55;;;;;;;4.75;3.67;;;11.60;99.90;;;;;;5114335;28;20032;-47
2022/11/30 00:58:21;;;;;;;3.95;3.25;;;11.40;99.90;;;;;;5114004;28;20103;-47
2022/11/30 01:00:47;;;;;;;4.63;3.53;;;11.20;99.90;;;;;;5113952;28;20492;-47
2022/11/30 01:03:12;;;;;;;6.00;3.80;;;11.10;99.90;;;;;;5113852;28;20031;-47
2022/11/30 01:05:39;;;;;;;4.90;3.50;;;12.10;99.90;;;;;;5113970;28;20103;-47
2022/11/30 01:08:06;;;;;;;5.72;3.60;;;13.80;99.90;;;;;;5113426;28;20730;-47
2022/11/30 01:10:33;;;;;;;5.55;3.50;;;14.20;99.90;;;;;;5113792;27;20024;-47
2022/11/30 01:12:59;;;;;;;5.05;3.90;;;14.00;99.90;;;;;;5114212;28;20019;-49
2022/11/30 01:15:25;;;;;;;4.35;3.17;;;13.50;99.90;;;;;;5113571;28;20024;-49
2022/11/30 01:17:51;;;;;;;3.97;3.08;;;13.00;99.90;;;;;;5113389;28;20031;-47
2022/11/30 01:20:16;;;;;;;4.78;3.65;;;12.50;99.90;;;;;;5113184;28;20038;-47
2022/11/30 01:22:42;;;;;;;3.92;3.13;;;12.10;99.90;;;;;;5113747;28;20034;-47
2022/11/30 01:25:08;;;;;;;4.65;3.72;;;11.70;99.90;;;;;;5113530;28;20028;-47
2022/11/30 01:27:34;;;;;;;4.95;3.75;;;11.40;99.90;;;;;;5113294;28;20292;-50
2022/11/30 01:29:59;;;;;;;5.45;4.22;;;11.20;99.90;;;;;;5113427;28;20024;-48
2022/11/30 01:32:26;;;;;;;5.70;3.83;;;11.10;99.90;;;;;;5113526;28;20503;-47
2022/11/30 01:34:52;;;;;;;4.95;4.00;;;10.90;99.90;;;;;;5113511;28;20028;-47
2022/11/30 01:37:17;;;;;;;5.10;4.00;;;10.80;99.90;;;;;;5112313;28;20023;-47
2022/11/30 01:39:43;;;;;;;5.68;4.00;;;11.30;99.90;;;;;;5112918;28;20063;-47
2022/11/30 01:42:19;;;;;;;5.68;3.95;;;13.00;99.90;;;;;;5113277;28;20103;-48
2022/11/30 01:44:59;;;;;;;4.32;3.40;;;14.30;99.90;;;;;;5113099;28;20084;-47
2022/11/30 01:47:38;;;;;;;5.35;3.83;;;14.30;99.90;;;;;;5113007;28;20053;-47
2022/11/30 01:50:09;;;;;;;5.18;3.83;;;13.80;99.90;;;;;;5112777;28;20028;-47
2022/11/30 01:52:42;;;;;;;5.30;3.97;;;13.30;99.90;;;;;;5113099;28;20061;-47
2022/11/30 01:55:29;;;;;;;4.93;4.00;;;12.70;99.90;;;;;;5112971;28;20023;-47
2022/11/30 01:58:04;;;;;;;5.60;3.95;;;12.20;99.90;;;;;;5112808;27;20443;-48
2022/11/30 02:00:30;;;;;;;5.35;3.92;;;11.80;99.90;;;;;;5113232;28;20385;-47
2022/11/30 02:03:21;;;;;;;5.93;4.18;;;11.50;99.90;;;;;;5112857;28;20076;-47
2022/11/30 02:05:48;;;;;;;4.85;3.65;;;11.20;99.90;;;;;;5110542;28;20039;-47
2022/11/30 02:08:13;;;;;;;6.13;4.20;;;11.10;99.90;;;;;;5112362;28;20028;-50
2022/11/30 02:10:43;;;;;;;5.35;3.95;;;11.00;99.90;;;;;;5112728;28;20103;-47
2022/11/30 02:13:19;;;;;;;4.60;3.65;;;10.90;99.90;;;;;;5112553;28;20574;-47
2022/11/30 02:16:03;;;;;;;6.32;4.60;;;12.00;99.90;;;;;;5112521;28;20111;-47
2022/11/30 02:18:52;;;;;;;4.90;3.63;;;13.90;99.90;;;;;;5112081;28;20049;-47
2022/11/30 02:21:37;;;;;;;6.10;3.75;;;14.40;99.90;;;;;;5112639;28;20048;-47
2022/11/30 02:24:44;;;;;;;5.30;3.92;;;14.10;99.90;;;;;;5112467;28;20136;-49
2022/11/30 02:27:18;;;;;;;5.38;3.80;;;13.40;99.90;;;;;;5111899;28;20076;-47
2022/11/30 02:30:02;;;;;;;;;;;12.80;99.90;;;;;;5112368;28;20030;-48
2022/11/30 02:32:32;;;;;;;5.45;3.92;;;12.30;99.90;;;;;;5112184;28;19915;-50
2022/11/30 02:35:00;;;;;;;6.15;4.45;;;11.90;99.90;;;;;;5111684;28;20567;-47
2022/11/30 02:37:28;;;;;;;5.38;4.15;;;11.50;99.90;;;;;;5111959;28;20469;-45
2022/11/30 02:39:54;;;;;;;6.30;4.00;;;11.30;99.90;;;;;;5111621;28;20032;-46
2022/11/30 02:42:19;;;;;;;7.15;4.57;;;11.10;99.90;;;;;;5112067;28;20019;-47
2022/11/30 02:44:49;;;;;;;5.85;4.22;;;10.90;99.90;;;;;;5112004;28;20426;-47
2022/11/30 02:47:24;;;;;;;6.05;4.15;;;10.80;99.90;;;;;;5111726;28;20488;-47
2022/11/30 02:49:57;;;;;;;6.43;4.75;;;10.70;99.90;;;;;;5111361;28;20028;-47
2022/11/30 02:52:25;;;;;;;5.25;4.30;;;10.60;99.90;;;;;;5112012;28;20023;-47
2022/11/30 02:54:52;;;;;;;5.50;4.35;;;10.60;99.90;;;;;;5111994;28;20020;-47
2022/11/30 02:57:18;;;;;;;5.85;4.63;;;10.50;99.90;;;;;;5111713;28;20110;-46
2022/11/30 02:59:43;;;;;;;7.20;5.20;;;10.50;99.90;;;;;;5111304;28;20161;-50
2022/11/30 03:02:09;;;;;;;6.22;4.72;;;10.50;99.90;;;;;;5112015;28;20138;-46
2022/11/30 03:04:34;;;;;;;7.38;5.03;;;11.00;99.90;;;;;;5111729;28;20399;-49
2022/11/30 03:07:00;;;;;;;5.25;4.30;;;12.50;99.90;;;;;;5111645;28;20019;-48
2022/11/30 03:09:26;;;;;;;5.90;4.55;;;14.20;99.90;;;;;;5111154;28;20019;-50
2022/11/30 03:11:51;;;;;;;5.63;4.28;;;14.70;99.90;;;;;;5111635;28;20023;-47
2022/11/30 03:14:17;;;;;;;5.63;3.95;;;14.30;99.90;;;;;;5111518;28;20027;-47
2022/11/30 03:16:43;;;;;;;5.53;4.05;;;13.80;99.90;;;;;;5111608;28;20026;-47
2022/11/30 03:19:09;;;;;;;7.03;4.72;;;13.20;99.90;;;;;;5111199;28;20036;-47
2022/11/30 03:21:34;;;;;;;7.00;4.85;;;12.60;99.90;;;;;;5111631;28;20032;-48
2022/11/30 03:24:00;;;;;;;6.93;4.72;;;12.20;99.90;;;;;;5111613;28;20425;-45
2022/11/30 03:26:26;;;;;;;7.40;4.75;;;11.80;99.90;;;;;;5111498;28;20020;-47
2022/11/30 03:28:51;;;;;;;5.97;4.72;;;11.50;99.90;;;;;;5110814;28;20028;-48
2022/11/30 03:31:17;;;;;;;5.80;4.35;;;11.30;99.90;;;;;;5111606;28;20031;-48
2022/11/30 03:33:42;;;;;;;6.82;5.15;;;11.20;99.90;;;;;;5111407;28;20380;-47
2022/11/30 03:36:10;;;;;;;6.68;5.15;;;12.20;99.90;;;;;;5110707;28;20488;-48
2022/11/30 03:38:36;;;;;;;6.20;4.68;;;13.70;99.90;;;;;;5110837;28;20023;-47
2022/11/30 03:41:21;;;;;;;5.15;4.38;;;14.10;99.90;;;;;;5111102;28;20568;-47
2022/11/30 03:43:46;;;;;;;6.88;4.93;;;13.80;99.90;;;;;;5111264;28;20156;-47
2022/11/30 03:46:13;;;;;;;6.18;4.32;;;13.30;99.90;;;;;;5111211;28;20106;-48
2022/11/30 03:48:40;;;;;;;7.38;4.90;;;12.80;99.90;;;;;;5110734;28;20020;-47
2022/11/30 03:51:06;;;;;;;6.43;4.63;;;12.30;99.90;;;;;;5111198;28;20047;-45
2022/11/30 03:53:32;;;;;;;6.82;4.75;;;11.90;99.90;;;;;;5111177;28;20031;-47
2022/11/30 03:56:01;;;;;;;6.03;4.40;;;11.60;99.90;;;;;;5111099;28;20020;-47
2022/11/30 03:58:27;;;;;;;8.27;5.10;;;11.40;99.90;;;;;;5110616;28;20045;-47
2022/11/30 04:01:05;;;;;;;7.25;4.97;;;11.20;99.90;;;;;;5113159;28;20020;-49
2022/11/30 04:03:30;;;;;;;5.90;4.53;;;11.00;99.90;;;;;;5115198;28;20168;-48
2022/11/30 04:05:57;;;;;;;6.80;4.85;;;12.10;99.90;;;;;;5114945;28;20493;-49
2022/11/30 04:08:23;;;;;;;5.90;4.65;;;13.80;99.90;;;;;;5114843;28;20047;-47
2022/11/30 04:10:53;;;;;;;6.97;4.80;;;14.60;99.90;;;;;;5115060;27;20062;-47
2022/11/30 04:13:20;;;;;;;5.85;4.25;;;14.50;99.90;;;;;;5115091;28;20051;-48
2022/11/30 04:15:47;;;;;;;6.43;4.43;;;14.00;99.90;;;;;;5114910;28;20027;-47
2022/11/30 04:18:14;;;;;;;5.47;4.35;;;13.40;99.90;;;;;;5114341;28;20027;-49
2022/11/30 04:20:40;;;;;;;5.88;4.65;;;12.80;99.90;;;;;;5114849;28;20024;-47
2022/11/30 04:23:05;;;;;;;5.55;4.22;;;12.30;99.90;;;;;;5114794;28;20598;-46
2022/11/30 04:25:31;;;;;;;6.93;4.90;;;11.90;99.90;;;;;;5114547;28;20028;-47
2022/11/30 04:27:56;;;;;;;6.60;4.80;;;11.60;99.90;;;;;;5114384;28;20119;-47
2022/11/30 04:30:22;;;;;;;6.60;4.97;;;11.40;99.90;;;;;;5114565;28;20019;-47
2022/11/30 04:32:48;;;;;;;5.80;4.38;;;11.20;99.90;;;;;;5114646;28;20397;-48
2022/11/30 04:35:13;;;;;;;6.93;4.80;;;11.60;99.90;;;;;;5113910;28;20073;-47
2022/11/30 04:37:39;;;;;;;5.68;4.65;;;13.20;99.90;;;;;;5114341;28;20057;-47
2022/11/30 04:40:06;;;;;;;5.53;3.90;;;14.00;99.90;;;;;;5113913;28;20040;-47
2022/11/30 04:42:31;;;;;;;6.22;4.55;;;13.90;99.90;;;;;;5114370;28;20024;-47
2022/11/30 04:44:57;;;;;;;6.38;4.47;;;13.50;99.90;;;;;;5114250;28;20030;-47
2022/11/30 04:47:22;;;;;;;5.55;4.28;;;13.10;99.90;;;;;;5114091;28;20026;-47
2022/11/30 04:49:48;;;;;;;6.45;4.80;;;12.60;99.90;;;;;;5113804;28;20057;-47
2022/11/30 04:52:14;;;;;;;5.82;4.45;;;12.10;99.90;;;;;;5114266;28;20100;-47
2022/11/30 04:54:40;;;;;;;6.75;5.05;;;11.80;99.90;;;;;;5112791;28;20119;-50
2022/11/30 04:57:05;;;;;;;7.75;5.32;;;11.50;99.90;;;;;;5114108;28;20122;-47
2022/11/30 04:59:31;;;;;;;6.38;4.80;;;11.30;99.90;;;;;;5113485;28;20392;-47
2022/11/30 05:01:57;;;;;;;6.10;4.63;;;11.10;99.90;;;;;;5114041;28;20103;-45
2022/11/30 05:04:23;;;;;;;6.03;4.38;;;11.30;99.90;;;;;;5113947;28;20547;-47
2022/11/30 05:06:49;;;;;;;6.43;4.43;;;12.70;99.90;;;;;;5114012;28;20020;-50
2022/11/30 05:09:14;;;;;;;5.20;4.22;;;14.00;99.90;;;;;;5113303;28;20020;-47
2022/11/30 05:11:40;;;;;;;5.65;4.13;;;14.20;99.90;;;;;;5113852;28;20024;-47
2022/11/30 05:14:06;;;;;;;5.63;4.40;;;13.80;99.90;;;;;;5113810;28;20111;-47
2022/11/30 05:16:31;;;;;;;6.95;4.40;;;13.30;99.90;;;;;;5113540;28;20030;-48
2022/11/30 05:18:57;;;;;;;4.80;4.15;;;12.80;99.90;;;;;;5113203;28;20035;-47
2022/11/30 05:21:22;;;;;;;6.72;4.82;;;12.30;99.90;;;;;;5113711;28;20054;-45
2022/11/30 05:23:48;;;;;;;5.90;4.70;;;11.90;99.90;;;;;;5113457;28;20067;-47
2022/11/30 05:26:14;;;;;;;5.72;4.75;;;11.70;99.90;;;;;;5113482;28;20059;-48
2022/11/30 05:28:40;;;;;;;5.07;4.25;;;11.30;99.90;;;;;;5113452;28;20102;-47
2022/11/30 05:31:06;;;;;;;5.68;4.43;;;11.10;99.90;;;;;;5113423;28;20422;-48
2022/11/30 05:33:32;;;;;;;5.82;4.30;;;11.20;99.90;;;;;;5113425;28;20019;-49
2022/11/30 05:35:58;;;;;;;5.22;4.22;;;12.30;99.90;;;;;;5112764;28;20054;-50
2022/11/30 05:38:23;;;;;;;5.03;4.10;;;13.80;99.90;;;;;;5112845;28;20477;-45
2022/11/30 05:40:49;;;;;;;6.20;4.20;;;14.20;99.90;;;;;;5113242;28;20420;-47
2022/11/30 05:43:15;;;;;;;5.28;4.20;;;13.90;99.90;;;;;;5113331;28;20364;-47
2022/11/30 05:45:40;;;;;;;5.13;3.80;;;13.40;99.90;;;;;;5113087;28;20020;-46
2022/11/30 05:48:06;;;;;;;5.63;4.05;;;12.90;99.90;;;;;;5112694;28;20031;-49
2022/11/30 05:50:31;;;;;;;5.65;4.13;;;12.40;99.90;;;;;;5113175;28;20024;-47
2022/11/30 05:52:59;;;;;;;6.57;4.03;;;12.00;99.90;;;;;;5113048;28;20027;-45
2022/11/30 05:55:26;;;;;;;5.50;3.97;;;11.60;99.90;;;;;;5112843;28;20027;-47
2022/11/30 05:57:52;;;;;;;5.72;4.15;;;11.40;99.90;;;;;;5112622;28;20114;-45
2022/11/30 06:00:19;;;;;;;5.22;4.10;;;11.20;99.90;;;;;;5112796;28;20032;-47
2022/11/30 06:02:45;;;;;;;5.38;4.07;;;11.10;99.90;;;;;;5113044;28;20081;-47
2022/11/30 06:05:12;;;;;;;5.22;3.80;;;11.70;99.90;;;;;;5112752;28;20024;-45
2022/11/30 06:07:38;;;;;;;5.43;3.75;;;13.30;99.90;;;;;;5112602;28;20465;-47
2022/11/30 06:10:04;;;;;;;5.50;4.38;;;14.10;99.90;;;;;;5112670;28;20023;-47
2022/11/30 06:12:30;;;;;;;6.30;3.95;;;13.90;99.90;;;;;;5112698;28;20047;-48
2022/11/30 06:14:56;;;;;;;5.15;4.10;;;13.50;99.90;;;;;;5112756;28;20456;-48
2022/11/30 06:17:21;;;;;;;5.60;4.00;;;13.00;99.90;;;;;;5112467;28;20024;-51
2022/11/30 06:19:47;;;;;;;4.63;3.67;;;12.50;99.90;;;;;;5110552;28;20019;-45
2022/11/30 06:22:12;;;;;;;4.78;3.45;;;12.10;99.90;;;;;;5112430;28;20488;-47
2022/11/30 06:24:38;;;;;;;6.50;4.30;;;11.70;99.90;;;;;;5111747;28;20028;-47
2022/11/30 06:27:04;;;;;;;5.00;3.75;;;11.50;99.90;;;;;;5112422;28;20104;-50
2022/11/30 06:29:29;;;;;;;5.93;4.20;;;11.20;99.90;;;;;;5111791;28;20055;-45
2022/11/30 06:31:55;;;;;;;4.90;3.80;;;11.00;99.90;;;;;;5112279;28;20092;-47
2022/11/30 06:34:20;;;;;;;5.20;3.97;;;11.30;99.90;;;;;;5112342;28;20046;-47
2022/11/30 06:36:46;;;;;;;5.88;3.67;;;12.70;99.90;;;;;;5112118;28;20059;-52
2022/11/30 06:39:12;;;;;;;5.00;3.95;;;13.90;99.90;;;;;;5111476;28;20068;-47
2022/11/30 06:41:37;;;;;;;5.13;3.60;;;14.10;99.90;;;;;;5112140;28;20023;-47
2022/11/30 06:44:08;;;;;;;4.45;3.55;;;13.80;99.90;;;;;;5112002;28;20030;-47
2022/11/30 06:46:33;;;;;;;4.82;3.40;;;13.20;99.90;;;;;;5112046;28;20424;-47
2022/11/30 06:48:59;;;;;;;4.43;3.63;;;12.70;99.90;;;;;;5111502;28;20015;-48
2022/11/30 06:51:25;;;;;;;6.05;3.75;;;12.30;99.90;;;;;;5111944;28;20015;-47
2022/11/30 06:53:51;;;;;;;4.90;3.65;;;11.90;99.90;;;;;;5111816;28;20050;-48
2022/11/30 06:56:17;;;;;;;6.13;4.03;;;11.60;99.90;;;;;;5111859;28;20106;-49
2022/11/30 06:58:42;;;;;;;5.07;4.10;;;11.30;99.90;;;;;;5111418;28;20031;-47
2022/11/30 07:01:11;;;;;;;5.05;3.90;;;11.10;99.90;;;;;;5111865;28;20384;-47
2022/11/30 07:03:37;;;;;;;5.47;3.92;;;11.00;99.90;;;;;;5111790;28;20032;-47
2022/11/30 07:06:13;;;;;;;4.82;3.97;;;10.90;99.90;;;;;;5111679;28;20024;-46
2022/11/30 07:08:40;;;;;;;4.68;3.72;;;10.70;99.90;;;;;;5111083;28;20030;-47
2022/11/30 07:11:06;;;;;;;5.82;4.00;;;10.70;99.90;;;;;;5111675;28;20182;-47
2022/11/30 07:13:32;;;;;;;6.00;4.43;;;10.60;99.90;;;;;;5111653;28;20057;-48
2022/11/30 07:15:58;;;;;;;6.55;4.30;;;10.60;99.90;;;;;;5111547;28;20046;-47
2022/11/30 07:18:24;;;;;;;5.53;4.28;;;10.50;99.90;;;;;;5111062;28;20481;-50
2022/11/30 07:20:49;;;;;;;6.35;4.10;;;10.50;99.90;;;;;;5111524;28;20031;-47
2022/11/30 07:26:11;;;;;;;5.28;3.88;;;10.40;99.90;;;;;;5111577;28;20062;-47
2022/11/30 07:28:42;;;;;;;5.65;3.92;;;10.40;99.90;;;;;;5109696;28;20027;-47
2022/11/30 07:31:15;;;;;;;5.72;4.32;;;10.40;99.90;;;;;;5111523;28;20034;-47
2022/11/30 07:33:41;;;;;;;7.05;4.55;;;10.30;99.90;;;;;;5111393;28;20386;-51
2022/11/30 07:36:07;;;;;;;6.22;4.35;;;10.30;99.90;;;;;;5113740;28;20065;-47
2022/11/30 07:38:33;;;;;;;6.03;4.07;;;10.30;99.90;;;;;;5115181;28;20023;-48
2022/11/30 07:40:58;;;;;;;5.75;4.18;;;10.30;99.90;;;;;;5115618;28;20028;-47
2022/11/30 07:43:24;;;;;;;5.57;4.57;;;10.30;99.90;;;;;;5115673;28;20119;-47
2022/11/30 07:45:52;;;;;;;5.75;4.20;;;10.30;99.90;;;;;;5115397;28;20530;-49
2022/11/30 07:48:18;;;;;;;5.22;3.88;;;10.30;99.90;;;;;;5115057;28;20510;-49
2022/11/30 07:50:43;;;;;;;5.45;3.97;;;10.30;99.90;;;;;;5115504;28;20027;-48
2022/11/30 07:53:09;;;;;;;4.93;3.85;;;10.30;99.90;;;;;;5115539;28;20020;-45
2022/11/30 07:55:34;;;;;;;6.78;4.15;;;10.30;99.90;;;;;;5115500;28;20027;-47
2022/11/30 07:58:00;;;;;;;5.20;3.78;;;10.30;99.90;;;;;;5115463;28;20032;-47
2022/11/30 08:00:26;;;;;;;5.78;4.30;;;10.30;99.90;;;;;;5115071;28;20430;-52
2022/11/30 08:02:51;;;;;;;6.13;4.25;;;10.20;99.90;;;;;;5115257;28;20031;-46
2022/11/30 08:05:17;;;;;;;5.78;4.25;;;10.20;99.90;;;;;;5115055;28;20480;-47
2022/11/30 08:07:44;;;;;;;6.10;4.38;;;10.20;99.90;;;;;;5115025;28;20026;-47
2022/11/30 08:10:10;;;;;;;4.53;4.00;;;10.20;99.90;;;;;;5114892;28;20092;-47
2022/11/30 08:12:36;;;;;;;5.53;4.10;;;10.20;99.90;;;;;;5115085;28;20531;-47
2022/11/30 08:15:02;;;;;;;6.30;4.05;;;10.20;99.90;;;;;;5114953;28;20269;-47
2022/11/30 08:17:27;;;;;;;5.35;3.85;;;10.20;99.90;;;;;;5114822;28;20387;-47
2022/11/30 08:19:53;;;;;;;6.03;4.25;;;10.20;99.90;;;;;;5114587;28;20489;-47
2022/11/30 08:22:19;;;;;;;5.65;4.43;;;10.20;99.90;;;;;;5114840;28;20024;-48
2022/11/30 08:24:44;;;;;;;5.85;4.25;;;10.20;99.90;;;;;;5114751;28;20031;-47
2022/11/30 08:27:10;;;;;;;6.45;4.63;;;10.20;99.90;;;;;;5114629;27;20077;-45
2022/11/30 08:29:35;;;;;;;6.53;4.35;;;10.20;99.90;;;;;;5112793;28;20051;-47
2022/11/30 08:32:01;;;;;;;6.35;4.85;;;10.20;99.90;;;;;;5114618;28;20435;-47
2022/11/30 08:34:26;;;;;;;5.38;4.38;;;10.20;99.90;;;;;;5114578;28;20036;-46
2022/11/30 08:36:52;;;;;;;5.22;4.13;;;10.20;99.90;;;;;;5113753;28;20024;-47
2022/11/30 08:39:18;;;;;;;6.47;4.45;;;10.20;99.90;;;;;;5113821;28;20027;-47
2022/11/30 08:41:43;;;;;;;6.22;4.70;;;10.20;99.90;;;;;;5114545;27;20027;-49
2022/11/30 08:44:09;;;;;;;5.82;4.40;;;10.20;99.90;;;;;;5114314;28;20023;-47
2022/11/30 08:46:36;;;;;;;6.53;4.55;;;10.20;99.90;;;;;;5113871;28;20026;-47
2022/11/30 08:49:02;;;;;;;5.43;4.03;;;10.20;99.90;;;;;;5113772;28;20024;-47
2022/11/30 08:51:28;;;;;;;6.38;4.50;;;10.20;99.90;;;;;;5114120;28;20026;-49
2022/11/30 08:53:53;;;;;;;5.55;4.22;;;10.20;99.90;;;;;;5114230;28;20038;-46
2022/11/30 08:56:22;;;;;;;6.25;4.38;;;10.20;99.90;;;;;;5114309;28;20024;-47
2022/11/30 08:58:48;;;;;;;5.32;4.18;;;10.20;99.90;;;;;;5113592;28;20492;-47
2022/11/30 09:01:20;;;;;;;6.63;4.50;;;10.20;99.90;;;;;;5114068;28;20046;-50
2022/11/30 09:03:47;;;;;;;6.18;4.30;;;10.20;99.90;;;;;;5113808;28;20028;-47
2022/11/30 09:06:19;;;;;;;6.80;4.80;;;10.20;99.90;;;;;;5114157;27;20095;-47
2022/11/30 09:08:46;;;;;;;5.35;4.30;;;10.20;99.90;;;;;;5113482;28;20024;-50
2022/11/30 09:11:24;;;;;;;6.47;4.63;;;10.20;99.90;;;;;;5113853;28;20027;-46
2022/11/30 09:13:53;;;;;;;4.97;4.05;;;10.10;99.90;;;;;;5112545;28;20111;-47
2022/11/30 09:16:20;;;;;;;5.65;4.00;;;10.20;99.90;;;;;;5113623;28;20437;-50
2022/11/30 09:18:47;;;;;;;6.47;4.40;;;10.20;99.90;;;;;;5113156;28;20030;-47
2022/11/30 09:21:16;;;;;;;5.88;3.88;;;10.20;99.90;;;;;;5113739;28;20016;-47
2022/11/30 09:23:42;;;;;;;6.65;4.30;;;10.20;99.90;;;;;;5113607;28;20045;-45
2022/11/30 09:26:10;;;;;;;5.68;4.10;;;10.20;99.90;;;;;;5113620;28;20027;-47
2022/11/30 09:28:37;;;;;;;5.53;4.35;;;10.20;99.90;;;;;;5113104;27;20024;-47
2022/11/30 09:31:17;;;;;;;5.65;4.55;;;10.20;99.90;;;;;;5113451;28;20418;-46
2022/11/30 09:33:44;;;;;;;7.45;4.90;;;10.20;99.90;;;;;;5113555;28;20473;-47
2022/11/30 09:36:12;;;;;;;6.70;4.63;;;10.20;99.90;;;;;;5113396;28;20035;-48
2022/11/30 09:38:39;;;;;;;6.47;4.80;;;10.20;99.90;;;;;;5112865;28;20023;-47
2022/11/30 09:41:41;;;;;;;5.82;4.40;;;10.20;99.90;;;;;;5113778;28;20027;-47
2022/11/30 09:44:23;;;;;;;6.53;4.40;;;10.20;99.90;;;;;;5113246;28;20484;-47
2022/11/30 09:47:00;;;;;;;7.90;5.47;;;10.20;99.90;;;;;;5113553;28;20377;-47
2022/11/30 09:49:34;;;;;;;7.03;4.75;;;10.20;99.90;;;;;;5112670;28;20031;-47
2022/11/30 09:52:03;;;;;;;7.35;4.88;;;10.20;99.90;;;;;;5113145;27;20066;-50
2022/11/30 09:54:42;;;;;;;6.82;4.85;;;10.20;99.90;;;;;;5113287;28;20106;-47
2022/11/30 09:57:24;;;;;;;6.70;4.90;;;10.20;99.90;;;;;;5112867;27;20024;-47
2022/11/30 10:00:05;;;;;;;6.65;4.90;;;10.20;99.90;;;;;;5112187;28;20160;-47
2022/11/30 10:02:36;;;;;;;6.85;5.13;;;10.20;99.90;;;;;;5112866;28;20106;-51
2022/11/30 10:05:10;;;;;;;6.75;4.70;;;10.20;99.90;;;;;;5112751;28;20032;-49
2022/11/30 10:08:02;;;;;;;7.50;4.95;;;10.20;99.90;;;;;;5112631;28;20028;-47
2022/11/30 10:10:50;;;;;;;5.70;4.78;;;10.20;99.90;;;;;;5112657;28;20065;-48
2022/11/30 10:13:53;;;;;;;5.75;4.63;;;10.20;99.90;;;;;;5112722;28;20027;-47
2022/11/30 10:16:44;;;;;;;7.63;5.63;;;10.20;99.90;;;;;;5112522;28;20128;-45
2022/11/30 10:19:47;;;;;;;6.15;4.80;;;10.20;99.90;;;;;;5112120;28;20059;-49
2022/11/30 10:22:19;;;;;;;6.45;5.05;;;10.20;99.90;;;;;;5112903;28;20122;-45
2022/11/30 10:25:13;;;;;;;7.70;5.10;;;10.20;99.90;;;;;;5112449;28;20385;-47
2022/11/30 10:27:44;;;;;;;6.40;4.80;;;10.20;99.90;;;;;;5112314;27;20027;-47
2022/11/30 10:30:21;;;;;;;6.55;4.85;;;10.20;99.90;;;;;;5111911;28;20024;-48
2022/11/30 10:32:57;;;;;;;6.35;4.90;;;10.20;99.90;;;;;;5112452;28;20551;-47
2022/11/30 10:35:40;;;;;;;6.53;4.65;;;10.20;99.90;;;;;;5112670;28;20103;-47
2022/11/30 10:38:23;;;;;;;5.85;4.32;;;10.20;99.90;;;;;;5111740;28;20115;-52
2022/11/30 10:41:15;;;;;;;6.45;4.80;;;10.20;99.90;;;;;;5112015;28;20035;-48
2022/11/30 10:43:47;;;;;;;6.00;4.25;;;10.20;99.90;;;;;;5112059;28;20035;-47
2022/11/30 10:46:46;;;;;;;6.95;4.93;;;10.20;99.90;;;;;;5112161;28;20035;-47
2022/11/30 10:49:17;;;;;;;6.90;5.22;;;10.20;99.90;;;;;;5104031;28;20449;-47
2022/11/30 10:51:49;;;;;;;7.03;4.53;;;10.20;99.90;;;;;;5112097;28;20027;-47
2022/11/30 10:54:18;;;;;;;6.13;4.97;;;10.20;99.90;;;;;;5111845;28;20496;-47
2022/11/30 10:56:44;;;;;;;5.97;4.50;;;10.20;99.90;;;;;;5111809;28;20031;-47
2022/11/30 10:59:20;;;;;;;6.88;4.82;;;10.20;99.90;;;;;;5111579;28;20039;-47
2022/11/30 11:01:46;;;;;;;6.45;4.80;;;10.20;99.90;;;;;;5111782;28;20023;-47
2022/11/30 11:04:11;;;;;;;5.55;4.53;;;10.20;99.90;;;;;;5111652;28;20080;-47
2022/11/30 11:06:47;;;;;;;7.18;5.47;;;10.20;99.90;;;;;;5111547;28;20019;-50
2022/11/30 11:09:29;;;;;;;7.45;5.00;;;10.20;99.90;;;;;;5111050;28;20020;-47
2022/11/30 11:11:57;;;;;;;6.32;4.78;;;10.20;99.90;;;;;;5111690;28;20155;-47
2022/11/30 11:14:25;;;;;;;6.50;4.68;;;10.20;99.90;;;;;;5111525;28;20024;-47
2022/11/30 11:16:58;;;;;;;6.13;4.60;;;10.20;99.90;;;;;;5111522;28;20489;-47
2022/11/30 11:19:35;;;;;;;5.93;4.80;;;10.20;99.90;;;;;;5110875;28;20030;-50
2022/11/30 11:22:22;;;;;;;5.43;4.72;;;10.20;99.90;;;;;;5111479;28;20060;-48
2022/11/30 11:24:49;;;;;;;6.03;4.43;;;10.20;99.90;;;;;;5111438;28;20031;-46
2022/11/30 11:27:27;;;;;;;7.30;4.72;;;10.20;99.90;;;;;;5111384;28;20039;-53
2022/11/30 11:30:15;;;;;;;6.07;4.75;;;10.20;99.90;;;;;;5111111;28;20027;-47
2022/11/30 11:33:04;;;;;;;6.03;4.53;;;10.20;99.90;;;;;;5111488;28;20135;-48
2022/11/30 11:35:36;;;;;;;6.68;4.53;;;10.20;99.90;;;;;;5111413;28;20032;-46
2022/11/30 11:38:03;;;;;;;6.45;4.85;;;10.20;99.90;;;;;;5110848;28;20031;-47
2022/11/30 11:40:29;;;;;;;6.32;4.90;;;10.20;99.90;;;;;;5111211;28;20512;-47
2022/11/30 11:42:57;;;;;;;6.40;5.05;;;10.20;99.90;;;;;;5111366;28;20668;-47
2022/11/30 11:45:36;;;;;;;6.28;4.85;;;10.20;99.90;;;;;;5111216;28;20106;-48
2022/11/30 11:48:05;;;;;;;6.43;4.85;;;10.20;99.90;;;;;;5110824;28;20090;-50
2022/11/30 11:50:36;;;;;;;7.35;5.03;;;10.20;99.90;;;;;;5111181;28;20016;-47
2022/11/30 11:53:23;;;;;;;9.68;5.03;;;10.20;99.90;;;;;;5111339;28;20020;-48
2022/11/30 11:55:55;;;;;;;7.10;5.15;;;10.20;99.90;;;;;;5111142;28;20430;-47
2022/11/30 11:58:37;;;;;;;5.75;4.82;;;10.20;99.90;;;;;;5110702;28;20032;-47
2022/11/30 12:01:08;;;;;;;6.22;4.50;;;10.20;99.90;;;;;;5111141;28;20500;-47
2022/11/30 12:03:52;;;;;;;7.18;5.60;;;10.20;99.90;;;;;;5111554;28;20019;-47
2022/11/30 12:06:19;;;;;;;5.50;4.60;;;10.20;99.90;;;;;;5111153;28;20035;-51
2022/11/30 12:09:01;;;;;;;6.85;5.07;;;10.20;99.90;;;;;;5110830;28;20032;-47
2022/11/30 12:11:45;;;;;;;7.30;5.18;;;10.20;99.90;;;;;;5111061;28;20604;-47
2022/11/30 12:14:16;;;;;;;8.05;4.70;;;10.20;99.90;;;;;;5111194;28;20027;-47
2022/11/30 12:17:29;;;;;;;6.68;4.85;;;10.20;99.90;;;;;;5111134;28;20022;-45
2022/11/30 12:20:32;;;;;;;5.65;4.53;;;10.20;99.90;;;;;;5086943;28;20047;-50
2022/11/30 12:23:03;;;;;;;6.63;4.55;;;10.20;99.90;;;;;;5105314;28;20101;-45
2022/11/30 12:25:34;;;;;;;5.70;4.75;;;10.20;99.90;;;;;;5114902;28;20538;-47
2022/11/30 12:28:29;;;;;;;6.85;4.90;;;10.20;99.90;;;;;;5114345;27;20027;-47
2022/11/30 12:31:16;;;;;;;6.53;4.82;;;10.20;99.90;;;;;;5114793;28;20028;-49
2022/11/30 12:33:56;;;;;;;5.47;4.15;;;10.10;99.90;;;;;;5114820;28;20027;-45
2022/11/30 12:36:41;;;;;;;6.72;4.78;;;10.20;99.90;;;;;;5114489;28;20377;-47
2022/11/30 12:39:19;;;;;;;5.65;4.50;;;10.20;99.90;;;;;;5114133;28;20020;-49
2022/11/30 12:41:53;;;;;;;5.90;4.55;;;10.20;99.90;;;;;;5114845;28;20034;-51
2022/11/30 12:44:37;;;;;;;5.93;4.82;;;10.20;99.90;;;;;;5114463;28;20020;-47
2022/11/30 12:47:15;;;;;;;6.60;4.72;;;10.20;99.90;;;;;;5114367;28;20488;-45
2022/11/30 12:49:44;;;;;;;5.95;4.38;;;10.20;99.90;;;;;;5112722;28;20038;-47
2022/11/30 12:52:28;;;;;;;7.10;4.80;;;10.20;99.90;;;;;;5114289;28;20086;-47
2022/11/30 12:55:26;;;;;;;6.75;4.25;;;10.10;99.90;;;;;;5114244;27;20032;-47
2022/11/30 12:58:15;;;;;;;5.63;4.00;;;10.20;99.90;;;;;;5113843;28;20032;-47
2022/11/30 13:00:46;;;;;;;5.43;4.03;;;10.20;99.90;;;;;;5114133;28;20381;-47
2022/11/30 13:03:26;;;;;;;5.47;4.13;;;10.20;99.90;;;;;;5114115;28;20034;-47
2022/11/30 13:05:58;;;;;;;5.88;4.03;;;10.20;99.90;;;;;;5113940;28;20038;-49